createdAt,value
2022-10-14T00:01:15.270Z,15.55
2022-10-14T00:03:44.842Z,15.39
2022-10-14T00:06:16.992Z,15.29
2022-10-14T00:08:47.800Z,15.30
2022-10-14T00:11:18.488Z,15.52
2022-10-14T00:13:47.274Z,15.53
2022-10-14T00:16:19.535Z,15.67
2022-10-14T00:18:47.970Z,15.71
2022-10-14T00:21:17.969Z,15.64
2022-10-14T00:23:47.042Z,15.75
2022-10-14T00:26:20.233Z,15.76
2022-10-14T00:28:48.754Z,15.72
2022-10-14T00:31:16.713Z,15.71
2022-10-14T00:33:48.742Z,15.69
2022-10-14T00:36:19.756Z,15.58
2022-10-14T00:38:48.619Z,15.51
2022-10-14T00:41:19.181Z,15.48
2022-10-14T00:43:56.111Z,15.49
2022-10-14T00:46:23.907Z,15.39
2022-10-14T00:48:59.926Z,15.39
2022-10-14T00:51:55.277Z,15.43
2022-10-14T00:54:26.835Z,15.30
2022-10-14T00:56:54.802Z,15.35
2022-10-14T00:59:23.530Z,15.44
2022-10-14T01:01:51.394Z,15.51
2022-10-14T01:04:19.814Z,15.54
2022-10-14T01:07:02.204Z,15.64
2022-10-14T01:09:35.135Z,15.72
2022-10-14T01:12:29.950Z,15.69
2022-10-14T01:15:05.709Z,15.66
2022-10-14T01:17:44.633Z,15.72
2022-10-14T01:20:34.171Z,15.76
2022-10-14T01:23:22.302Z,15.67
2022-10-14T01:25:58.770Z,15.72
2022-10-14T01:28:36.859Z,15.76
2022-10-14T01:31:10.904Z,15.69
2022-10-14T01:33:41.861Z,15.71
2022-10-14T01:36:16.683Z,15.78
2022-10-14T01:38:50.112Z,15.67
2022-10-14T01:41:24.022Z,15.72
2022-10-14T01:43:54.498Z,15.69
2022-10-14T01:46:27.388Z,15.75
2022-10-14T01:48:59.127Z,15.60
2022-10-14T01:51:32.095Z,15.52
2022-10-14T01:54:03.699Z,15.52
2022-10-14T01:56:37.026Z,15.59
2022-10-14T01:59:09.476Z,15.56
2022-10-14T02:01:39.964Z,15.61
2022-10-14T02:04:16.426Z,15.68
2022-10-14T02:06:51.888Z,15.73
2022-10-14T02:09:28.930Z,15.59
2022-10-14T02:12:09.905Z,15.50
2022-10-14T02:14:44.787Z,15.38
2022-10-14T02:17:21.810Z,15.30
2022-10-14T02:19:53.755Z,15.14
2022-10-14T02:22:29.152Z,15.23
2022-10-14T02:25:01.033Z,15.16
2022-10-14T02:27:30.910Z,15.27
2022-10-14T02:30:00.934Z,15.18
2022-10-14T02:32:31.699Z,15.24
2022-10-14T02:35:00.550Z,15.27
2022-10-14T02:37:31.043Z,15.19
2022-10-14T02:40:06.082Z,15.20
2022-10-14T02:42:34.510Z,15.14
2022-10-14T02:45:05.903Z,15.22
2022-10-14T02:47:34.985Z,15.27
2022-10-14T02:50:02.688Z,15.24
2022-10-14T02:52:31.113Z,15.21
2022-10-14T02:54:59.158Z,15.21
2022-10-14T02:57:27.392Z,15.20
2022-10-14T02:59:57.887Z,15.23
2022-10-14T03:02:26.286Z,15.29
2022-10-14T03:04:55.525Z,15.30
2022-10-14T03:07:24.153Z,15.30
2022-10-14T03:09:53.063Z,15.27
2022-10-14T03:12:22.093Z,15.32
2022-10-14T03:14:50.922Z,15.29
2022-10-14T03:17:22.710Z,15.10
2022-10-14T03:19:52.846Z,15.21
2022-10-14T03:22:22.889Z,15.29
2022-10-14T03:24:51.673Z,15.32
2022-10-14T03:27:44.675Z,15.36
2022-10-14T03:30:14.948Z,15.32
2022-10-14T03:32:56.886Z,15.33
2022-10-14T03:35:47.530Z,15.39
2022-10-14T03:38:21.583Z,15.35
2022-10-14T03:40:50.526Z,15.43
2022-10-14T03:43:19.062Z,15.35
2022-10-14T03:45:55.134Z,15.43
2022-10-14T03:48:25.731Z,15.33
2022-10-14T03:50:57.346Z,15.33
2022-10-14T03:53:27.776Z,15.31
2022-10-14T03:55:55.896Z,15.27
2022-10-14T03:58:24.083Z,15.33
2022-10-14T04:00:58.311Z,15.34
2022-10-14T04:03:35.673Z,15.34
2022-10-14T04:06:03.623Z,15.36
2022-10-14T04:08:33.300Z,15.42
2022-10-14T04:11:14.221Z,15.44
2022-10-14T04:13:42.103Z,15.35
2022-10-14T04:16:12.018Z,15.39
2022-10-14T04:19:16.126Z,15.43
2022-10-14T04:21:45.193Z,15.39
2022-10-14T04:24:15.041Z,15.35
2022-10-14T04:26:47.499Z,15.37
2022-10-14T04:29:23.646Z,15.37
2022-10-14T04:32:01.089Z,15.37
2022-10-14T04:34:30.058Z,15.42
2022-10-14T04:36:58.617Z,15.41
2022-10-14T04:39:43.156Z,15.44
2022-10-14T04:42:11.771Z,15.39
2022-10-14T04:44:41.793Z,15.41
2022-10-14T04:47:11.957Z,15.36
2022-10-14T04:49:40.086Z,15.38
2022-10-14T04:52:14.772Z,15.33
2022-10-14T04:54:54.770Z,15.31
2022-10-14T04:57:34.235Z,15.31
2022-10-14T05:00:02.597Z,15.47
2022-10-14T05:02:46.438Z,15.41
2022-10-14T05:05:15.871Z,15.45
2022-10-14T05:07:47.386Z,15.44
2022-10-14T05:10:45.607Z,15.35
2022-10-14T05:13:20.339Z,15.34
2022-10-14T05:15:58.290Z,15.34
2022-10-14T05:18:27.438Z,15.35
2022-10-14T05:21:00.675Z,15.35
2022-10-14T05:23:41.986Z,15.38
2022-10-14T05:26:11.078Z,15.37
2022-10-14T05:28:41.683Z,15.34
2022-10-14T05:31:10.730Z,15.30
2022-10-14T05:33:47.014Z,15.28
2022-10-14T05:36:14.765Z,15.27
2022-10-14T05:38:42.940Z,15.27
2022-10-14T05:41:12.267Z,15.28
2022-10-14T05:43:41.093Z,15.26
2022-10-14T05:46:08.819Z,15.26
2022-10-14T05:48:42.030Z,15.25
2022-10-14T05:51:10.069Z,15.14
2022-10-14T05:53:40.258Z,15.14
2022-10-14T05:56:15.908Z,15.14
2022-10-14T05:58:44.258Z,15.13
2022-10-14T06:01:12.583Z,15.08
2022-10-14T06:03:42.913Z,15.03
2022-10-14T06:06:14.065Z,14.99
2022-10-14T06:08:43.316Z,14.94
2022-10-14T06:11:11.013Z,15.07
2022-10-14T06:13:41.238Z,15.16
2022-10-14T06:16:10.853Z,15.25
2022-10-14T06:18:39.652Z,15.29
2022-10-14T06:21:08.206Z,15.31
2022-10-14T06:23:36.331Z,15.35
2022-10-14T06:26:05.997Z,15.42
2022-10-14T06:28:34.337Z,15.46
2022-10-14T06:31:03.393Z,15.66
2022-10-14T06:33:32.158Z,15.72
2022-10-14T06:36:00.164Z,15.73
2022-10-14T06:38:28.607Z,15.72
2022-10-14T06:40:56.607Z,15.72
2022-10-14T06:43:24.561Z,15.78
2022-10-14T06:45:52.721Z,15.73
2022-10-14T06:48:21.820Z,15.75
2022-10-14T06:50:49.507Z,15.85
2022-10-14T06:53:17.727Z,15.97
2022-10-14T06:55:45.469Z,16.11
2022-10-14T06:58:13.813Z,16.21
2022-10-14T07:00:45.692Z,16.25
2022-10-14T07:03:16.391Z,16.32
2022-10-14T07:05:45.704Z,16.40
2022-10-14T07:08:15.524Z,16.58
2022-10-14T07:10:43.787Z,16.66
2022-10-14T07:13:12.283Z,16.74
2022-10-14T07:15:40.127Z,16.89
2022-10-14T07:18:08.552Z,17.25
2022-10-14T07:20:36.293Z,17.51
2022-10-14T07:23:05.707Z,17.63
2022-10-14T07:25:33.887Z,17.83
2022-10-14T07:28:02.033Z,17.92
2022-10-14T07:30:29.850Z,17.98
2022-10-14T07:32:58.173Z,17.98
2022-10-14T07:35:26.916Z,17.97
2022-10-14T07:37:55.668Z,18.08
2022-10-14T07:40:24.867Z,18.22
2022-10-14T07:42:52.929Z,18.38
2022-10-14T07:45:21.232Z,18.62
2022-10-14T07:47:51.272Z,18.85
2022-10-14T07:50:19.684Z,18.92
2022-10-14T07:52:47.824Z,18.97
2022-10-14T07:55:15.568Z,18.99
2022-10-14T07:57:44.657Z,19.03
2022-10-14T08:00:12.890Z,19.02
2022-10-14T08:02:41.072Z,19.12
2022-10-14T08:05:39.294Z,19.24
2022-10-14T08:07:57.707Z,19.41
2022-10-14T08:10:25.427Z,19.47
2022-10-14T08:12:54.816Z,19.63
2022-10-14T08:15:22.747Z,19.79
2022-10-14T08:17:50.966Z,19.99
2022-10-14T08:20:18.742Z,20.33
2022-10-14T08:22:47.725Z,20.56
2022-10-14T08:25:15.485Z,20.44
2022-10-14T08:27:43.550Z,20.45
2022-10-14T08:30:13.165Z,20.40
2022-10-14T08:32:41.299Z,20.69
2022-10-14T08:35:09.676Z,20.71
2022-10-14T08:37:38.209Z,20.48
2022-10-14T08:40:07.580Z,20.46
2022-10-14T08:42:41.301Z,20.72
2022-10-14T08:45:16.183Z,21.26
2022-10-14T08:47:46.915Z,21.48
2022-10-14T08:50:24.680Z,21.93
2022-10-14T08:52:58.359Z,22.47
2022-10-14T08:55:31.395Z,22.80
2022-10-14T08:58:06.306Z,23.18
2022-10-14T09:00:38.011Z,23.53
2022-10-14T09:03:16.338Z,23.64
2022-10-14T09:05:44.585Z,23.59
2022-10-14T09:08:17.035Z,23.44
2022-10-14T09:10:45.376Z,23.27
2022-10-14T09:13:18.686Z,23.36
2022-10-14T09:15:51.322Z,23.75
2022-10-14T09:18:27.967Z,24.21
2022-10-14T09:20:57.276Z,24.33
2022-10-14T09:25:58.714Z,24.56
2022-10-14T09:28:34.673Z,24.89
2022-10-14T09:31:04.184Z,24.79
2022-10-14T09:33:37.114Z,25.14
2022-10-14T09:36:13.461Z,25.50
2022-10-14T09:38:42.187Z,26.04
2022-10-14T09:41:15.721Z,25.62
2022-10-14T09:44:18.649Z,25.62
2022-10-14T09:46:58.531Z,25.50
2022-10-14T09:49:36.010Z,24.45
2022-10-14T09:52:03.770Z,23.60
2022-10-14T09:54:33.542Z,22.97
2022-10-14T09:57:04.934Z,23.09
2022-10-14T09:59:33.804Z,23.18
2022-10-14T10:02:05.389Z,23.11
2022-10-14T10:04:36.973Z,22.98
2022-10-14T10:07:07.013Z,23.18
2022-10-14T10:09:35.621Z,23.22
2022-10-14T10:12:24.195Z,23.32
2022-10-14T10:14:58.126Z,23.38
2022-10-14T10:17:28.273Z,22.98
2022-10-14T10:20:09.599Z,22.67
2022-10-14T10:22:38.923Z,23.01
2022-10-14T10:25:20.277Z,22.65
2022-10-14T10:27:50.666Z,22.92
2022-10-14T10:30:24.385Z,23.17
2022-10-14T10:33:18.423Z,23.20
2022-10-14T10:36:02.231Z,23.10
2022-10-14T10:38:35.060Z,22.90
2022-10-14T10:41:17.914Z,22.77
2022-10-14T10:44:12.312Z,22.12
2022-10-14T10:46:54.991Z,22.64
2022-10-14T10:49:38.782Z,22.49
2022-10-14T10:52:17.430Z,21.57
2022-10-14T10:54:56.452Z,20.94
2022-10-14T10:57:43.274Z,20.59
2022-10-14T11:00:16.527Z,20.86
2022-10-14T11:02:56.089Z,20.57
2022-10-14T11:05:44.050Z,20.72
2022-10-14T11:08:42.687Z,20.41
2022-10-14T11:11:39.814Z,20.30
2022-10-14T11:14:17.978Z,20.45
2022-10-14T11:16:53.252Z,20.39
2022-10-14T11:19:28.004Z,20.32
2022-10-14T11:22:06.910Z,20.34
2022-10-14T11:24:44.342Z,19.95
2022-10-14T11:27:20.962Z,20.10
2022-10-14T11:30:16.553Z,20.26
2022-10-14T11:33:00.076Z,20.32
2022-10-14T11:35:38.025Z,20.34
2022-10-14T11:38:25.214Z,20.12
2022-10-14T11:41:02.525Z,20.15
2022-10-14T11:43:40.721Z,20.24
2022-10-14T11:46:11.908Z,20.27
2022-10-14T11:48:45.302Z,20.34
2022-10-14T11:51:18.347Z,20.49
2022-10-14T11:53:58.407Z,20.60
2022-10-14T11:56:44.019Z,20.63
2022-10-14T11:59:32.034Z,20.66
2022-10-14T12:02:15.645Z,20.79
2022-10-14T12:04:47.462Z,20.67
2022-10-14T12:07:19.884Z,20.66
2022-10-14T12:09:57.384Z,20.65
2022-10-14T12:12:29.879Z,20.80
2022-10-14T12:15:01.187Z,20.70
2022-10-14T12:17:34.429Z,20.85
2022-10-14T12:20:09.801Z,20.74
2022-10-14T12:22:40.090Z,20.68
2022-10-14T12:25:17.582Z,20.51
2022-10-14T12:27:45.838Z,20.29
2022-10-14T12:30:35.065Z,19.79
2022-10-14T12:33:05.472Z,19.37
2022-10-14T12:36:00.987Z,19.17
2022-10-14T12:38:30.801Z,18.96
2022-10-14T12:41:32.213Z,18.91
2022-10-14T12:44:04.454Z,19.15
2022-10-14T12:46:32.580Z,19.03
2022-10-14T12:49:00.778Z,18.91
2022-10-14T12:51:28.530Z,19.08
2022-10-14T12:54:07.382Z,18.80
2022-10-14T12:56:39.838Z,18.61
2022-10-14T12:59:23.382Z,18.87
2022-10-14T13:01:56.995Z,18.86
2022-10-14T13:04:25.264Z,19.07
2022-10-14T13:07:47.186Z,18.96
2022-10-14T13:10:47.289Z,19.07
2022-10-14T13:13:52.290Z,18.93
2022-10-14T13:17:06.129Z,18.70
2022-10-14T13:19:44.942Z,18.90
2022-10-14T13:22:43.595Z,18.80
2022-10-14T13:25:18.154Z,18.72
2022-10-14T13:28:12.423Z,18.61
2022-10-14T13:31:05.685Z,18.43
2022-10-14T13:33:41.737Z,18.35
2022-10-14T13:36:17.841Z,18.71
2022-10-14T13:38:53.507Z,18.53
2022-10-14T13:41:30.576Z,18.52
2022-10-14T13:44:01.320Z,18.41
2022-10-14T13:46:33.211Z,18.63
2022-10-14T13:49:09.784Z,18.57
2022-10-14T13:51:45.805Z,18.59
2022-10-14T13:54:22.318Z,18.38
2022-10-14T13:57:38.124Z,18.55
2022-10-14T14:02:41.026Z,18.77
2022-10-14T14:05:17.198Z,18.78
2022-10-14T14:10:42.599Z,19.01
2022-10-14T14:13:19.872Z,19.03
2022-10-14T14:15:51.821Z,19.12
2022-10-14T14:18:49.133Z,19.11
2022-10-14T14:21:25.353Z,19.14
2022-10-14T14:23:56.499Z,19.18
2022-10-14T14:26:29.038Z,19.19
2022-10-14T14:28:56.910Z,19.20
2022-10-14T14:31:33.636Z,19.22
2022-10-14T14:34:18.046Z,19.18
2022-10-14T14:36:51.243Z,19.15
2022-10-14T14:39:27.562Z,19.18
2022-10-14T14:41:57.725Z,19.18
2022-10-14T14:44:28.187Z,19.17
2022-10-14T14:46:59.067Z,19.18
2022-10-14T14:49:29.289Z,19.21
2022-10-14T14:52:00.299Z,19.28
2022-10-14T14:54:30.250Z,19.24
2022-10-14T14:57:04.851Z,19.30
2022-10-14T14:59:36.772Z,19.24
2022-10-14T15:02:11.538Z,19.23
2022-10-14T15:04:39.682Z,19.25
2022-10-14T15:07:17.454Z,19.25
2022-10-14T15:09:52.566Z,19.22
2022-10-14T15:12:23.277Z,19.16
2022-10-14T15:14:53.842Z,19.11
2022-10-14T15:17:27.044Z,19.10
2022-10-14T15:19:57.060Z,19.19
2022-10-14T15:22:33.513Z,19.17
2022-10-14T15:25:09.687Z,19.14
2022-10-14T15:27:46.730Z,19.04
2022-10-14T15:30:31.694Z,19.02
2022-10-14T15:33:01.296Z,19.02
2022-10-14T15:35:30.587Z,18.92
2022-10-14T15:37:58.373Z,18.93
2022-10-14T15:40:30.810Z,18.92
2022-10-14T15:42:59.501Z,18.96
2022-10-14T15:45:27.457Z,18.99
2022-10-14T15:48:01.769Z,18.90
2022-10-14T15:50:30.343Z,18.93
2022-10-14T15:52:57.982Z,19.00
2022-10-14T15:55:29.999Z,18.98
2022-10-14T15:57:59.410Z,18.94
2022-10-14T16:00:27.205Z,18.95
2022-10-14T16:02:58.482Z,18.93
2022-10-14T16:05:28.888Z,18.89
2022-10-14T16:07:57.360Z,18.85
2022-10-14T16:10:29.333Z,18.79
2022-10-14T16:13:01.680Z,18.78
2022-10-14T16:15:36.573Z,18.72
2022-10-14T16:18:04.835Z,18.70
2022-10-14T16:20:32.960Z,18.73
2022-10-14T16:23:01.278Z,18.67
2022-10-14T16:25:32.853Z,18.68
2022-10-14T16:28:07.604Z,18.53
2022-10-14T16:30:38.639Z,18.53
2022-10-14T16:33:07.504Z,18.55
2022-10-14T16:35:35.209Z,18.53
2022-10-14T16:38:03.524Z,18.43
2022-10-14T16:40:35.826Z,18.50
2022-10-14T16:43:07.788Z,18.40
2022-10-14T16:45:35.416Z,18.29
2022-10-14T16:48:03.324Z,18.22
2022-10-14T16:50:30.959Z,18.25
2022-10-14T16:53:16.923Z,18.16
2022-10-14T16:55:44.578Z,18.10
2022-10-14T16:58:13.933Z,18.17
2022-10-14T17:00:42.087Z,18.15
2022-10-14T17:03:12.355Z,18.07
2022-10-14T17:05:40.023Z,17.98
2022-10-14T17:08:09.226Z,18.02
2022-10-14T17:10:38.860Z,17.95
2022-10-14T17:13:06.850Z,17.97
2022-10-14T17:15:38.497Z,17.85
2022-10-14T17:18:08.942Z,17.83
2022-10-14T17:20:39.743Z,17.87
2022-10-14T17:23:10.384Z,17.52
2022-10-14T17:25:40.832Z,17.47
2022-10-14T17:28:09.908Z,17.60
2022-10-14T17:30:39.063Z,17.41
2022-10-14T17:33:07.048Z,17.40
2022-10-14T17:35:34.727Z,17.46
2022-10-14T17:38:02.369Z,17.45
2022-10-14T17:40:33.956Z,17.41
2022-10-14T17:43:01.860Z,17.50
2022-10-14T17:45:31.356Z,17.37
2022-10-14T17:48:00.347Z,17.30
2022-10-14T17:50:28.515Z,17.24
2022-10-14T17:52:58.748Z,17.33
2022-10-14T17:55:26.817Z,17.35
2022-10-14T17:57:54.546Z,17.14
2022-10-14T18:00:22.867Z,17.10
2022-10-14T18:02:50.570Z,17.11
2022-10-14T18:05:20.510Z,17.06
2022-10-14T18:07:48.148Z,16.94
2022-10-14T18:10:16.034Z,17.19
2022-10-14T18:12:43.943Z,17.17
2022-10-14T18:15:11.866Z,17.26
2022-10-14T18:17:39.511Z,17.21
2022-10-14T18:20:07.999Z,17.14
2022-10-14T18:22:37.093Z,17.19
2022-10-14T18:25:06.681Z,17.26
2022-10-14T18:27:34.364Z,17.31
2022-10-14T18:30:02.329Z,17.29
2022-10-14T18:32:29.999Z,17.49
2022-10-14T18:34:57.650Z,17.51
2022-10-14T18:37:25.390Z,17.54
2022-10-14T18:39:55.065Z,17.60
2022-10-14T18:42:23.069Z,17.53
2022-10-14T18:44:51.418Z,17.59
2022-10-14T18:47:19.176Z,17.54
2022-10-14T18:49:48.702Z,17.63
2022-10-14T18:52:18.783Z,17.60
2022-10-14T18:54:47.168Z,17.69
2022-10-14T18:57:17.265Z,17.72
2022-10-14T18:59:45.200Z,17.56
2022-10-14T19:02:14.859Z,17.69
2022-10-14T19:04:42.649Z,17.64
2022-10-14T19:07:10.398Z,17.66
2022-10-14T19:09:38.578Z,17.74
2022-10-14T19:12:26.688Z,17.66
2022-10-14T19:14:56.028Z,17.70
2022-10-14T19:17:23.676Z,17.79
2022-10-14T19:19:52.079Z,17.69
2022-10-14T19:22:20.115Z,17.61
2022-10-14T19:24:48.026Z,17.63
2022-10-14T19:27:15.729Z,17.72
2022-10-14T19:29:43.704Z,17.64
2022-10-14T19:32:12.778Z,17.68
2022-10-14T19:34:44.853Z,17.60
2022-10-14T19:37:14.790Z,17.66
2022-10-14T19:39:43.089Z,17.72
2022-10-14T19:42:10.718Z,17.82
2022-10-14T19:44:38.384Z,17.84
2022-10-14T19:47:06.123Z,17.89
2022-10-14T19:49:35.519Z,17.77
2022-10-14T19:52:03.164Z,17.73
2022-10-14T19:54:31.195Z,17.67
2022-10-14T19:56:58.825Z,17.63
2022-10-14T19:59:26.887Z,17.61
2022-10-14T20:01:54.625Z,17.59
2022-10-14T20:04:25.212Z,17.62
2022-10-14T20:06:56.628Z,17.63
2022-10-14T20:09:24.549Z,17.66
2022-10-14T20:11:52.994Z,17.76
2022-10-14T20:14:20.898Z,17.79
2022-10-14T20:16:53.547Z,17.82
2022-10-14T20:19:23.710Z,17.80
2022-10-14T20:21:51.701Z,17.79
2022-10-14T20:24:20.727Z,17.66
2022-10-14T20:26:48.727Z,17.71
2022-10-14T20:29:16.633Z,17.77
2022-10-14T20:31:44.675Z,17.82
2022-10-14T20:34:12.343Z,17.87
2022-10-14T20:36:40.354Z,17.77
2022-10-14T20:39:07.981Z,17.81
2022-10-14T20:41:37.117Z,17.64
2022-10-14T20:44:05.033Z,17.67
2022-10-14T20:46:32.923Z,17.78
2022-10-14T20:49:00.732Z,17.72
2022-10-14T20:51:28.770Z,17.72
2022-10-14T20:54:01.808Z,17.61
2022-10-14T20:56:33.871Z,17.49
2022-10-14T20:59:04.511Z,17.70
2022-10-14T21:01:35.859Z,17.62
2022-10-14T21:04:05.025Z,17.60
2022-10-14T21:06:33.310Z,17.56
2022-10-14T21:09:01.585Z,17.61
2022-10-14T21:11:29.931Z,17.20
2022-10-14T21:13:59.806Z,17.12
2022-10-14T21:16:30.998Z,17.18
2022-10-14T21:19:01.707Z,17.00
2022-10-14T21:21:34.069Z,16.91
2022-10-14T21:24:01.713Z,17.12
2022-10-14T21:26:30.518Z,16.82
2022-10-14T21:28:58.255Z,16.68
2022-10-14T21:31:28.125Z,16.75
2022-10-14T21:34:01.160Z,16.90
2022-10-14T21:36:30.799Z,16.81
2022-10-14T21:39:00.683Z,16.44
2022-10-14T21:41:28.982Z,16.67
2022-10-14T21:43:58.791Z,16.64
2022-10-14T21:46:28.769Z,16.65
2022-10-14T21:48:57.766Z,16.69
2022-10-14T21:51:27.756Z,16.63
2022-10-14T21:53:55.966Z,16.42
2022-10-14T21:56:25.254Z,16.52
2022-10-14T21:58:53.187Z,16.56
2022-10-14T22:01:23.480Z,16.50
2022-10-14T22:03:56.126Z,16.38
2022-10-14T22:06:24.655Z,16.39
2022-10-14T22:08:55.172Z,16.47
2022-10-14T22:11:26.726Z,16.33
2022-10-14T22:13:56.069Z,16.40
2022-10-14T22:16:24.415Z,16.53
2022-10-14T22:18:54.526Z,16.52
2022-10-14T22:21:24.918Z,16.12
2022-10-14T22:23:53.034Z,16.37
2022-10-14T22:26:24.014Z,16.21
2022-10-14T22:28:58.574Z,16.41
2022-10-14T22:31:27.884Z,16.45
2022-10-14T22:33:56.976Z,16.51
2022-10-14T22:36:28.470Z,16.59
2022-10-14T22:38:56.947Z,16.39
2022-10-14T22:41:27.910Z,16.38
2022-10-14T22:43:59.701Z,16.53
2022-10-14T22:46:29.573Z,16.57
2022-10-14T22:49:00.754Z,16.79
2022-10-14T22:51:31.340Z,16.45
2022-10-14T22:53:59.629Z,16.51
2022-10-14T22:56:30.154Z,16.66
2022-10-14T22:58:59.313Z,16.54
2022-10-14T23:01:28.531Z,16.52
2022-10-14T23:03:58.293Z,16.73
2022-10-14T23:06:27.510Z,16.74
2022-10-14T23:08:55.326Z,16.59
2022-10-14T23:11:25.846Z,16.38
2022-10-14T23:13:54.378Z,16.27
2022-10-14T23:16:24.251Z,16.57
2022-10-14T23:18:52.850Z,16.53
2022-10-14T23:21:24.685Z,16.33
2022-10-14T23:23:53.810Z,16.46
2022-10-14T23:26:23.578Z,16.65
2022-10-14T23:28:52.974Z,16.64
2022-10-14T23:31:23.243Z,16.65
2022-10-14T23:33:52.708Z,16.69
2022-10-14T23:36:23.285Z,16.57
2022-10-14T23:38:52.899Z,16.71
2022-10-14T23:41:22.593Z,16.76
2022-10-14T23:43:52.028Z,16.47
2022-10-14T23:46:20.853Z,16.62
2022-10-14T23:48:55.924Z,16.57
2022-10-14T23:51:36.704Z,16.61
2022-10-14T23:54:05.626Z,16.73
2022-10-14T23:56:33.295Z,16.41
2022-10-14T23:59:01.234Z,16.32
